Terminal Aerodrome Forecast
Issued by NWS Portland, ME

Home | Current Version | Previous Version | Text Only | Print | Product List | Glossary On
Versions: 1 2 3 4 5 6 7 8 9 10 11 12 13 14 15 16 17
000
FTUS41 KGYX 010907 RRA
TAFPWM
TAF
KPWM 010907Z 0109/0206 02006KT P6SM BKN015 OVC030
     FM011100 02006KT 6SM BR SCT007 OVC015
     FM011500 02011KT 6SM -SHRA BR OVC015
     FM012000 04007KT P6SM SCT010 OVC025=

USA.gov is the U.S. government's official web portal to all federal, state and local government web resources and services.